Time;durP1;ratioP1;P1;durP2;ratioP2;P2;SDS_P1;SDS_P2;PMS_P1;PMS_P2;Temp;Humidity;BMP_temperature;BMP_pressure;BME280_temperature;BME280_humidity;BME280_pressure;Samples;Min_cycle;Max_cycle;Signal;HPM_P1;HPM_P2
2021/12/02 00:01:14;;;;;;;17.02;4.30;;;6.00;99.90;;;;;;5074613;28;20032;-85
2021/12/02 00:03:41;;;;;;;19.98;4.75;;;6.10;99.90;;;;;;5074501;28;20048;-85
2021/12/02 00:06:09;;;;;;;21.02;4.50;;;6.20;99.90;;;;;;5074589;28;20017;-86
2021/12/02 00:08:35;;;;;;;17.48;4.30;;;6.20;99.90;;;;;;5074518;28;20031;-85
2021/12/02 00:11:02;;;;;;;19.88;5.50;;;6.20;99.90;;;;;;5074487;28;20087;-85
2021/12/02 00:13:29;;;;;;;27.05;7.60;;;6.20;99.90;;;;;;5074264;28;20106;-85
2021/12/02 00:16:06;;;;;;;25.87;6.07;;;6.20;99.90;;;;;;5074569;28;20111;-85
2021/12/02 00:21:19;;;;;;;24.63;5.72;;;6.20;99.90;;;;;;5074368;28;20028;-85
2021/12/02 00:23:53;;;;;;;25.42;5.82;;;6.30;99.90;;;;;;5072719;28;20028;-85
2021/12/02 00:26:20;;;;;;;23.55;5.32;;;6.30;99.90;;;;;;5073117;28;20508;-85
2021/12/02 00:28:57;;;;;;;21.00;4.45;;;6.30;99.90;;;;;;5074510;28;20491;-85
2021/12/02 00:31:28;;;;;;;23.55;5.40;;;6.40;99.90;;;;;;5074134;28;20039;-84
2021/12/02 00:33:57;;;;;;;23.98;4.30;;;6.30;99.90;;;;;;5074215;28;20047;-85
2021/12/02 00:36:25;;;;;;;19.30;4.20;;;6.40;99.90;;;;;;5074044;28;20046;-85
2021/12/02 00:38:51;;;;;;;17.63;4.57;;;6.40;99.90;;;;;;5074383;28;20508;-85
2021/12/02 00:41:20;;;;;;;18.92;4.65;;;6.30;99.90;;;;;;5074202;28;20051;-85
2021/12/02 00:43:46;;;;;;;;;;;6.30;99.90;;;;;;5074292;28;20488;-85
2021/12/02 00:46:15;;;;;;;19.98;4.18;;;6.30;99.90;;;;;;5073822;28;19915;-85
2021/12/02 00:48:42;;;;;;;24.10;4.82;;;6.20;99.90;;;;;;5073845;28;20048;-85
2021/12/02 00:51:09;;;;;;;32.45;5.00;;;6.20;99.90;;;;;;5073759;28;20369;-85
2021/12/02 00:53:37;;;;;;;18.40;4.05;;;6.20;99.90;;;;;;5072434;28;20020;-85
2021/12/02 00:56:06;;;;;;;14.85;3.92;;;6.20;99.90;;;;;;5073619;28;20025;-85
2021/12/02 00:58:33;;;;;;;20.98;4.18;;;6.20;99.90;;;;;;5072130;28;20082;-85
2021/12/02 01:01:00;;;;;;;19.35;4.28;;;6.20;99.90;;;;;;5073596;28;20032;-85
2021/12/02 01:03:32;;;;;;;18.55;3.95;;;6.10;99.90;;;;;;5073411;28;20020;-84
2021/12/02 01:05:58;;;;;;;25.58;4.10;;;6.10;99.90;;;;;;5073669;28;20170;-84
2021/12/02 01:08:25;;;;;;;19.15;3.90;;;6.10;99.90;;;;;;5073549;28;20031;-84
2021/12/02 01:10:51;;;;;;;18.45;3.72;;;6.10;99.90;;;;;;5073704;28;20024;-85
2021/12/02 01:13:17;;;;;;;21.27;4.13;;;6.10;99.90;;;;;;5071908;28;20074;-85
2021/12/02 01:15:43;;;;;;;15.82;3.55;;;6.10;99.90;;;;;;5073121;28;20036;-85
2021/12/02 01:18:09;;;;;;;26.20;4.63;;;6.10;99.90;;;;;;5071933;28;20020;-85
2021/12/02 01:20:35;;;;;;;11.93;3.92;;;6.20;99.90;;;;;;5073194;28;20476;-85
2021/12/02 01:23:02;;;;;;;21.15;4.07;;;6.20;99.90;;;;;;5071632;28;20055;-85
2021/12/02 01:25:30;;;;;;;17.98;3.90;;;6.20;99.90;;;;;;5071770;28;20092;-85
2021/12/02 01:27:58;;;;;;;16.63;3.88;;;6.30;99.90;;;;;;5073010;28;20021;-85
2021/12/02 01:30:33;;;;;;;14.32;3.75;;;6.30;99.90;;;;;;5072051;28;20043;-85
2021/12/02 01:33:06;;;;;;;13.60;4.18;;;6.30;99.90;;;;;;5073022;28;20027;-85
2021/12/02 01:35:34;;;;;;;15.68;3.65;;;6.30;99.90;;;;;;5071593;28;20056;-85
2021/12/02 01:38:00;;;;;;;15.75;4.00;;;6.40;99.90;;;;;;5072883;28;20405;-85
2021/12/02 01:40:27;;;;;;;15.32;3.72;;;6.40;99.90;;;;;;5072779;28;20029;-85
2021/12/02 01:42:58;;;;;;;16.02;4.32;;;6.40;99.90;;;;;;5073124;28;20486;-85
2021/12/02 01:45:26;;;;;;;9.65;4.20;;;6.40;99.90;;;;;;5071605;28;20146;-84
2021/12/02 01:47:54;;;;;;;14.43;4.70;;;6.40;99.90;;;;;;5072989;28;20024;-85
2021/12/02 01:50:23;;;;;;;13.90;4.73;;;6.40;99.90;;;;;;5072874;28;20032;-85
2021/12/02 01:52:55;;;;;;;14.95;4.32;;;6.40;99.90;;;;;;5072515;28;20484;-85
2021/12/02 01:55:21;;;;;;;22.17;4.45;;;6.40;99.90;;;;;;5072871;28;20541;-85
2021/12/02 01:57:58;;;;;;;21.08;4.20;;;6.40;99.90;;;;;;5071133;28;20020;-84
2021/12/02 02:00:32;;;;;;;16.20;4.00;;;6.40;99.90;;;;;;5071366;28;20111;-85
2021/12/02 02:03:02;;;;;;;22.35;4.20;;;6.40;99.90;;;;;;5072421;28;20021;-85
2021/12/02 02:05:28;;;;;;;16.33;4.15;;;6.30;99.90;;;;;;5070904;28;20040;-85
2021/12/02 02:07:57;;;;;;;22.88;4.82;;;6.30;99.90;;;;;;5072235;28;20027;-85
2021/12/02 02:10:24;;;;;;;20.27;4.05;;;6.30;99.90;;;;;;5072337;28;20025;-85
2021/12/02 02:12:50;;;;;;;18.23;3.88;;;6.20;99.90;;;;;;5072281;28;20021;-85
2021/12/02 02:15:16;;;;;;;17.48;4.22;;;6.20;99.90;;;;;;5072148;28;20036;-84
2021/12/02 02:17:55;;;;;;;14.38;3.88;;;6.10;99.90;;;;;;5070402;28;20021;-85
2021/12/02 02:20:23;;;;;;;12.85;3.53;;;6.10;99.90;;;;;;5072090;28;20020;-85
2021/12/02 02:22:49;;;;;;;11.18;3.28;;;6.10;99.90;;;;;;5070729;28;20035;-85
2021/12/02 02:25:15;;;;;;;18.40;3.50;;;6.10;99.90;;;;;;5070657;28;20124;-85
2021/12/02 02:27:41;;;;;;;20.23;3.50;;;6.10;99.90;;;;;;5071902;28;20012;-84
2021/12/02 02:30:09;;;;;;;19.42;3.47;;;6.10;99.90;;;;;;5070590;28;20024;-85
2021/12/02 02:32:35;;;;;;;13.20;3.05;;;6.10;99.90;;;;;;5071776;28;20029;-85
2021/12/02 02:35:01;;;;;;;12.68;2.78;;;6.10;99.90;;;;;;5071888;28;20017;-85
2021/12/02 02:37:32;;;;;;;18.70;3.25;;;6.10;99.90;;;;;;5072164;28;20028;-84
2021/12/02 02:39:58;;;;;;;16.42;3.13;;;6.20;99.90;;;;;;5071844;28;20420;-85
2021/12/02 02:42:25;;;;;;;10.10;2.70;;;6.10;99.90;;;;;;5070890;28;20058;-85
2021/12/02 02:44:51;;;;;;;13.98;3.53;;;6.10;99.90;;;;;;5070331;28;20086;-85
2021/12/02 02:47:17;;;;;;;14.95;3.38;;;5.90;99.90;;;;;;5070320;28;20477;-85
2021/12/02 02:49:43;;;;;;;15.23;3.42;;;5.90;99.90;;;;;;5070350;28;20142;-84
2021/12/02 02:52:08;;;;;;;15.30;3.60;;;5.80;99.90;;;;;;5070304;28;20149;-84
2021/12/02 02:54:34;;;;;;;18.63;3.17;;;5.70;99.90;;;;;;5070374;28;20060;-84
2021/12/02 02:57:03;;;;;;;19.27;3.25;;;5.70;99.90;;;;;;5071594;28;20021;-84
2021/12/02 03:02:30;;;;;;;13.75;2.97;;;5.60;99.90;;;;;;5071619;28;20085;-84
2021/12/02 03:05:08;;;;;;;22.58;3.60;;;5.50;99.90;;;;;;5071795;28;20068;-84
2021/12/02 03:07:40;;;;;;;15.73;2.97;;;5.50;99.90;;;;;;5070203;28;20102;-85
2021/12/02 03:17:46;;;;;;;15.10;3.63;;;5.30;99.90;;;;;;5071480;28;20033;-84
2021/12/02 03:20:13;;;;;;;16.67;3.95;;;5.20;99.90;;;;;;5073025;28;20063;-84
2021/12/02 03:22:40;;;;;;;24.05;5.05;;;5.20;99.90;;;;;;5075442;28;20033;-84
2021/12/02 03:25:07;;;;;;;14.30;3.90;;;5.10;99.90;;;;;;5075372;28;20064;-85
2021/12/02 03:27:33;;;;;;;16.88;4.00;;;5.10;99.90;;;;;;5075300;28;20069;-84
2021/12/02 03:29:59;;;;;;;16.00;4.93;;;5.40;99.90;;;;;;5075670;28;20024;-85
2021/12/02 03:32:24;;;;;;;22.77;4.72;;;5.10;99.90;;;;;;5073991;28;20032;-86
2021/12/02 03:34:50;;;;;;;12.85;3.75;;;5.10;99.90;;;;;;5075227;28;20396;-85
2021/12/02 03:37:19;;;;;;;15.23;4.03;;;5.10;99.90;;;;;;5075208;28;20070;-86
2021/12/02 03:39:46;;;;;;;21.10;4.30;;;5.80;99.90;;;;;;5073865;28;20020;-85
2021/12/02 03:42:12;;;;;;;20.65;4.63;;;5.70;99.90;;;;;;5075149;28;20028;-85
2021/12/02 03:44:38;;;;;;;21.58;4.70;;;4.90;99.90;;;;;;5075191;28;20032;-85
2021/12/02 03:47:03;;;;;;;28.25;4.05;;;6.30;99.90;;;;;;5073745;28;20039;-85
2021/12/02 03:49:29;;;;;;;14.85;4.03;;;5.00;99.90;;;;;;5075299;28;20100;-85
2021/12/02 03:51:55;;;;;;;13.57;3.90;;;5.00;99.90;;;;;;5075094;28;20021;-86
2021/12/02 03:54:21;;;;;;;16.15;3.50;;;4.80;99.90;;;;;;5076163;28;20078;-86
2021/12/02 03:56:46;;;;;;;18.58;4.35;;;5.30;99.90;;;;;;5075576;28;20378;-86
2021/12/02 03:59:13;;;;;;;17.23;3.75;;;6.00;99.90;;;;;;5075139;28;20024;-86
2021/12/02 04:01:39;;;;;;;19.40;4.50;;;6.80;99.90;;;;;;5073662;28;20017;-85
2021/12/02 04:04:05;;;;;;;19.13;4.55;;;6.20;99.90;;;;;;5074577;28;20043;-85
2021/12/02 04:06:30;;;;;;;12.98;3.80;;;5.30;99.90;;;;;;5073707;28;20092;-85
2021/12/02 04:09:04;;;;;;;28.00;5.32;;;5.50;99.90;;;;;;5074700;28;20392;-84
2021/12/02 04:11:35;;;;;;;16.58;3.58;;;4.80;99.90;;;;;;5073520;28;20043;-86
2021/12/02 04:16:34;;;;;;;16.38;3.80;;;4.70;99.90;;;;;;5074655;28;20032;-86
2021/12/02 04:19:00;;;;;;;17.90;3.95;;;5.30;99.90;;;;;;5074985;28;20028;-86
2021/12/02 04:21:26;;;;;;;19.58;4.18;;;5.90;99.90;;;;;;5074487;28;20027;-85
2021/12/02 04:23:52;;;;;;;15.93;3.22;;;4.70;99.90;;;;;;5073023;28;20029;-86
2021/12/02 04:26:18;;;;;;;11.43;3.70;;;4.70;99.90;;;;;;5074261;28;20021;-85
2021/12/02 04:28:44;;;;;;;15.07;3.20;;;5.10;99.90;;;;;;5074289;28;20056;-86
2021/12/02 04:31:09;;;;;;;17.63;3.65;;;4.70;99.90;;;;;;5073674;28;20020;-88
2021/12/02 04:33:35;;;;;;;13.68;3.38;;;4.80;99.90;;;;;;5072852;28;20078;-85
2021/12/02 04:36:01;;;;;;;12.75;2.92;;;4.60;99.90;;;;;;5073192;28;20024;-85
2021/12/02 04:38:28;;;;;;;14.25;3.10;;;4.60;99.90;;;;;;5074101;28;20031;-86
2021/12/02 04:40:55;;;;;;;21.15;3.78;;;4.50;99.90;;;;;;5074118;28;20064;-86
2021/12/02 04:43:21;;;;;;;17.50;3.65;;;4.50;99.90;;;;;;5072568;28;20515;-87
2021/12/02 04:45:47;;;;;;;15.68;3.30;;;4.80;99.90;;;;;;5072581;28;20029;-84
2021/12/02 04:48:14;;;;;;;12.63;3.08;;;4.50;99.90;;;;;;5074695;28;20031;-90
2021/12/02 04:50:40;;;;;;;21.88;2.72;;;4.70;99.90;;;;;;5073602;28;20048;-93
2021/12/02 04:53:06;;;;;;;19.92;3.15;;;4.80;99.90;;;;;;5073554;28;20021;-92
2021/12/02 04:55:32;;;;;;;10.13;2.65;;;4.70;99.90;;;;;;5073771;28;20021;-90
2021/12/02 04:57:58;;;;;;;13.88;3.42;;;4.80;99.90;;;;;;5074405;28;20107;-90
2021/12/02 05:00:24;;;;;;;11.43;3.17;;;4.80;99.90;;;;;;5072937;28;20540;-91
2021/12/02 05:02:49;;;;;;;11.10;2.88;;;4.80;99.90;;;;;;5074024;28;20381;-89
2021/12/02 05:05:15;;;;;;;14.70;2.40;;;4.70;99.90;;;;;;5080081;28;20032;-89
2021/12/02 05:07:41;;;;;;;14.90;2.92;;;4.80;99.90;;;;;;5094095;28;20028;-90
2021/12/02 05:10:07;;;;;;;18.95;3.55;;;4.70;99.90;;;;;;5092734;28;20028;-90
2021/12/02 05:12:33;;;;;;;14.32;3.03;;;4.70;99.90;;;;;;5093244;28;20025;-89
2021/12/02 05:15:00;;;;;;;18.15;2.72;;;4.60;99.90;;;;;;5092716;28;20063;-90
2021/12/02 05:17:26;;;;;;;23.63;3.60;;;4.60;99.90;;;;;;5093159;28;20047;-90
2021/12/02 05:19:52;;;;;;;23.73;4.30;;;4.70;99.90;;;;;;5093017;28;20052;-90
2021/12/02 05:22:18;;;;;;;13.15;3.30;;;4.60;99.90;;;;;;5085284;28;20052;-90
2021/12/02 05:24:44;;;;;;;25.55;5.43;;;4.70;99.90;;;;;;5078651;28;20105;-90
2021/12/02 05:27:14;;;;;;;10.18;2.20;;;4.40;99.90;;;;;;5086738;28;20447;-91
2021/12/02 05:29:39;;;;;;;17.73;2.28;;;4.20;99.90;;;;;;5091388;28;20028;-91
2021/12/02 05:32:05;;;;;;;10.65;2.35;;;4.40;99.90;;;;;;5090242;28;20123;-92
2021/12/02 05:34:31;;;;;;;18.52;2.40;;;4.40;99.90;;;;;;5085487;28;20073;-91
2021/12/02 05:36:57;;;;;;;9.35;2.30;;;4.60;99.90;;;;;;5081387;28;20082;-91
2021/12/02 05:39:30;;;;;;;10.52;1.90;;;4.30;99.90;;;;;;5086135;28;20028;-91
2021/12/02 05:41:56;;;;;;;9.57;2.20;;;4.20;99.90;;;;;;5097214;28;20027;-93
2021/12/02 05:44:25;;;;;;;14.05;2.13;;;4.30;99.90;;;;;;5095531;28;20089;-93
2021/12/02 05:46:52;;;;;;;13.65;1.92;;;4.30;99.90;;;;;;5094244;28;20081;-90
2021/12/02 05:49:18;;;;;;;12.85;2.90;;;4.30;99.90;;;;;;5093051;28;20059;-90
2021/12/02 05:51:45;;;;;;;14.40;2.47;;;4.40;99.90;;;;;;5092788;28;20106;-92
2021/12/02 05:54:16;;;;;;;10.27;2.15;;;4.20;99.90;;;;;;5093028;28;20051;-91
2021/12/02 05:56:42;;;;;;;17.45;2.58;;;4.20;99.90;;;;;;5092471;28;20440;-88
2021/12/02 05:59:08;;;;;;;10.43;2.10;;;4.30;99.90;;;;;;5093570;28;20020;-89
2021/12/02 06:01:34;;;;;;;14.27;2.50;;;4.30;99.90;;;;;;5091964;28;20161;-89
2021/12/02 06:04:01;;;;;;;16.95;2.90;;;4.30;99.90;;;;;;5081557;28;20119;-87
2021/12/02 06:06:27;;;;;;;14.43;2.60;;;4.30;99.90;;;;;;5072810;28;20028;-90
2021/12/02 06:08:53;;;;;;;8.88;2.17;;;4.30;99.90;;;;;;5079822;28;20094;-89
2021/12/02 06:11:23;;;;;;;11.52;2.25;;;4.30;99.90;;;;;;5080759;28;20084;-88
2021/12/02 06:13:48;;;;;;;16.77;2.95;;;4.30;99.90;;;;;;5080946;28;20110;-89
2021/12/02 06:16:21;;;;;;;10.57;2.55;;;4.40;99.90;;;;;;5083368;28;20115;-91
2021/12/02 06:18:47;;;;;;;13.80;2.92;;;4.40;99.90;;;;;;5092049;28;20016;-89
2021/12/02 06:21:12;;;;;;;17.75;3.45;;;4.40;99.90;;;;;;5076346;28;20032;-88
2021/12/02 06:23:40;;;;;;;13.63;2.58;;;4.40;99.90;;;;;;5071932;28;20381;-89
2021/12/02 06:26:06;;;;;;;10.80;2.13;;;4.40;99.90;;;;;;5078518;28;20043;-89
2021/12/02 06:28:32;;;;;;;21.92;5.03;;;4.40;99.90;;;;;;5078804;28;20013;-90
2021/12/02 06:31:01;;;;;;;8.70;3.13;;;4.20;99.90;;;;;;5073459;28;20451;-89
2021/12/02 06:33:27;;;;;;;14.00;4.75;;;4.20;99.90;;;;;;5070768;28;20473;-89
2021/12/02 06:35:52;;;;;;;15.13;3.90;;;4.20;99.90;;;;;;5070891;28;20047;-88
2021/12/02 06:38:18;;;;;;;15.90;3.05;;;4.30;99.90;;;;;;5070251;28;20040;-88
2021/12/02 06:40:45;;;;;;;13.95;2.50;;;4.10;99.90;;;;;;5070209;28;20044;-89
2021/12/02 06:43:14;;;;;;;10.00;2.60;;;4.10;99.90;;;;;;5070417;28;20025;-89
2021/12/02 06:45:40;;;;;;;15.07;3.45;;;4.00;99.90;;;;;;5070615;28;20408;-88
2021/12/02 06:48:05;;;;;;;21.27;3.47;;;3.90;99.90;;;;;;5072183;28;20460;-89
2021/12/02 06:50:33;;;;;;;12.55;3.10;;;4.00;99.90;;;;;;5070596;28;20032;-90
2021/12/02 06:52:59;;;;;;;14.38;3.83;;;4.20;99.90;;;;;;5069671;28;20088;-89
2021/12/02 06:55:25;;;;;;;18.10;3.75;;;4.00;99.90;;;;;;5068842;28;20123;-88
2021/12/02 06:57:51;;;;;;;11.65;3.33;;;4.00;99.90;;;;;;5071875;28;20374;-89
2021/12/02 07:00:20;;;;;;;13.05;5.05;;;4.00;99.90;;;;;;5070541;28;20035;-88
2021/12/02 07:02:46;;;;;;;19.52;4.82;;;3.90;99.90;;;;;;5070625;28;20020;-88
2021/12/02 07:05:13;;;;;;;12.43;3.53;;;3.90;99.90;;;;;;5070430;28;20043;-89
2021/12/02 07:07:40;;;;;;;14.25;2.67;;;3.90;99.90;;;;;;5071119;28;20028;-89
2021/12/02 07:10:22;;;;;;;11.60;3.08;;;3.80;99.90;;;;;;5070945;28;20029;-89
2021/12/02 07:12:52;;;;;;;15.57;3.03;;;3.70;99.90;;;;;;5070382;28;20027;-89
2021/12/02 07:15:21;;;;;;;17.70;3.10;;;4.00;99.90;;;;;;5071542;28;20036;-88
2021/12/02 07:17:54;;;;;;;11.00;2.60;;;3.70;99.90;;;;;;5071458;28;20044;-89
2021/12/02 07:20:19;;;;;;;15.40;3.75;;;3.70;99.90;;;;;;5070268;28;20031;-89
2021/12/02 07:22:45;;;;;;;14.07;3.00;;;3.80;99.90;;;;;;5070400;28;20028;-88
2021/12/02 07:25:11;;;;;;;12.07;3.10;;;3.80;99.90;;;;;;5070589;28;20036;-88
2021/12/02 07:27:36;;;;;;;12.15;2.70;;;3.80;99.90;;;;;;5070656;28;20035;-88
2021/12/02 07:30:05;;;;;;;12.90;2.80;;;3.90;99.90;;;;;;5071618;28;20487;-89
2021/12/02 07:32:39;;;;;;;18.67;3.17;;;3.80;99.90;;;;;;5070104;28;20020;-89
2021/12/02 07:35:11;;;;;;;19.90;3.33;;;3.80;99.90;;;;;;5070137;28;20542;-89
2021/12/02 07:37:39;;;;;;;11.07;2.80;;;3.80;99.90;;;;;;5070267;28;20478;-89
2021/12/02 07:40:05;;;;;;;13.80;3.17;;;3.80;99.90;;;;;;5070268;28;20543;-88
2021/12/02 07:42:32;;;;;;;11.43;2.83;;;3.80;99.90;;;;;;5071440;28;20060;-89
2021/12/02 07:44:58;;;;;;;11.85;3.65;;;3.80;99.90;;;;;;5069958;28;20036;-88
2021/12/02 07:47:25;;;;;;;13.40;5.15;;;3.80;99.90;;;;;;5070079;28;20025;-89
2021/12/02 07:49:51;;;;;;;15.40;3.70;;;3.90;99.90;;;;;;5070235;28;20035;-88
2021/12/02 07:52:23;;;;;;;11.30;3.60;;;3.80;99.90;;;;;;5070086;28;20513;-89
2021/12/02 07:54:51;;;;;;;10.82;3.30;;;3.90;99.90;;;;;;5071405;28;20021;-88
2021/12/02 07:57:17;;;;;;;11.87;3.07;;;3.90;99.90;;;;;;5071255;28;20025;-89
2021/12/02 07:59:43;;;;;;;13.57;3.15;;;3.90;99.90;;;;;;5070325;28;20400;-89
2021/12/02 08:02:15;;;;;;;11.02;3.30;;;3.90;99.90;;;;;;5071359;28;20020;-90
2021/12/02 08:04:41;;;;;;;15.52;3.40;;;3.80;99.90;;;;;;5069998;28;20032;-88
2021/12/02 08:07:06;;;;;;;15.30;3.55;;;3.80;99.90;;;;;;5072451;28;20027;-89
2021/12/02 08:09:32;;;;;;;14.05;2.90;;;3.70;99.90;;;;;;5073672;28;20123;-89
2021/12/02 08:11:59;;;;;;;8.07;3.00;;;3.80;99.90;;;;;;5074796;28;20021;-88
2021/12/02 08:14:26;;;;;;;8.75;3.28;;;3.70;99.90;;;;;;5073308;28;20032;-89
2021/12/02 08:16:51;;;;;;;10.38;3.20;;;3.70;99.90;;;;;;5073409;28;20024;-88
2021/12/02 08:19:18;;;;;;;8.90;3.13;;;3.70;99.90;;;;;;5073478;28;20480;-87
2021/12/02 08:21:43;;;;;;;11.88;2.88;;;3.70;99.90;;;;;;5074927;28;20027;-89
2021/12/02 08:24:09;;;;;;;12.07;3.60;;;3.70;99.90;;;;;;5073392;28;20032;-88
2021/12/02 08:26:35;;;;;;;6.45;3.65;;;3.80;99.90;;;;;;5073229;28;20412;-89
2021/12/02 08:29:02;;;;;;;10.63;3.13;;;3.80;99.90;;;;;;5074399;28;20043;-88
2021/12/02 08:31:28;;;;;;;11.20;3.83;;;3.80;99.90;;;;;;5074469;28;20562;-87
2021/12/02 08:33:54;;;;;;;26.38;6.60;;;4.10;99.90;;;;;;5073119;28;20021;-89
2021/12/02 08:36:23;;;;;;;23.02;7.45;;;4.00;99.90;;;;;;5074436;28;20365;-88
2021/12/02 08:38:50;;;;;;;26.20;6.85;;;4.10;99.90;;;;;;5073102;28;20027;-88
2021/12/02 08:41:18;;;;;;;18.80;6.30;;;4.30;99.90;;;;;;5072885;28;20032;-88
2021/12/02 08:43:45;;;;;;;;;;;4.40;99.90;;;;;;5074878;28;20027;-88
2021/12/02 08:46:10;;;;;;;14.95;3.50;;;4.50;99.90;;;;;;5073220;28;19943;-88
2021/12/02 08:48:36;;;;;;;15.50;3.92;;;4.70;99.90;;;;;;5074294;28;20060;-89
2021/12/02 08:51:02;;;;;;;10.30;3.90;;;4.70;99.90;;;;;;5072845;28;20032;-89
2021/12/02 08:53:27;;;;;;;16.92;5.30;;;4.80;99.90;;;;;;5074104;28;20443;-88
2021/12/02 08:55:53;;;;;;;14.35;4.10;;;4.80;99.90;;;;;;5081111;28;20025;-88
2021/12/02 08:58:19;;;;;;;11.15;4.28;;;4.90;99.90;;;;;;5081159;28;20058;-89
2021/12/02 09:00:45;;;;;;;17.70;4.40;;;4.90;99.90;;;;;;5079257;28;20025;-88
2021/12/02 09:03:14;;;;;;;10.60;4.63;;;5.00;99.90;;;;;;5072927;28;20024;-88
2021/12/02 09:05:40;;;;;;;15.15;4.32;;;5.00;99.90;;;;;;5072725;28;20476;-87
2021/12/02 09:08:06;;;;;;;17.00;4.63;;;5.00;99.90;;;;;;5073822;28;20032;-88
2021/12/02 09:10:33;;;;;;;15.32;4.13;;;5.00;99.90;;;;;;5073842;28;20155;-87
2021/12/02 09:12:59;;;;;;;15.43;4.30;;;5.00;99.90;;;;;;5073613;28;20017;-88
2021/12/02 09:15:25;;;;;;;12.45;4.10;;;5.10;99.90;;;;;;5073478;28;20040;-88
2021/12/02 09:17:51;;;;;;;13.57;3.83;;;5.20;99.90;;;;;;5072200;28;20028;-87
2021/12/02 09:20:17;;;;;;;12.32;3.95;;;5.20;99.90;;;;;;5073980;28;20030;-89
2021/12/02 09:22:44;;;;;;;15.02;4.93;;;5.20;99.90;;;;;;5073825;28;20510;-89
2021/12/02 09:25:11;;;;;;;20.98;5.18;;;5.30;99.90;;;;;;5072284;28;20033;-88
2021/12/02 09:27:36;;;;;;;17.00;5.78;;;5.30;99.90;;;;;;5072173;28;20391;-88
2021/12/02 09:30:04;;;;;;;16.73;4.75;;;5.40;99.90;;;;;;5073348;28;20484;-89
2021/12/02 09:32:30;;;;;;;15.38;4.60;;;5.50;99.90;;;;;;5073321;28;20028;-88
2021/12/02 09:34:56;;;;;;;20.48;4.95;;;5.60;99.90;;;;;;5072218;28;20025;-88
2021/12/02 09:37:21;;;;;;;12.50;4.45;;;5.60;99.90;;;;;;5073290;28;20024;-89
2021/12/02 09:39:47;;;;;;;19.65;5.30;;;5.70;99.90;;;;;;5073546;28;20060;-88
2021/12/02 09:42:14;;;;;;;13.88;5.63;;;5.90;99.90;;;;;;5073283;28;20028;-89
2021/12/02 09:44:43;;;;;;;18.17;5.32;;;5.90;99.90;;;;;;5073079;28;20071;-89
2021/12/02 09:47:09;;;;;;;14.65;4.47;;;6.00;99.90;;;;;;5073131;28;20028;-89
2021/12/02 09:49:36;;;;;;;16.50;4.80;;;6.00;99.90;;;;;;5072975;28;20032;-88
2021/12/02 09:52:03;;;;;;;21.67;4.30;;;6.20;99.90;;;;;;5072933;28;20025;-88
2021/12/02 09:54:49;;;;;;;16.77;4.60;;;6.20;99.90;;;;;;5073046;28;20020;-89
2021/12/02 09:57:16;;;;;;;17.00;4.20;;;6.30;99.90;;;;;;5073251;28;20396;-88
2021/12/02 10:02:14;;;;;;;12.15;3.92;;;6.40;99.90;;;;;;5072865;28;20496;-88
2021/12/02 10:04:52;;;;;;;15.88;4.13;;;6.40;99.90;;;;;;5071345;28;20072;-89
2021/12/02 10:10:07;;;;;;;18.38;4.25;;;6.40;99.90;;;;;;5072810;28;20056;-89
2021/12/02 10:12:36;;;;;;;14.40;4.60;;;6.40;99.90;;;;;;5072415;28;20017;-88
2021/12/02 10:15:08;;;;;;;;;;;6.40;99.90;;;;;;5072681;28;20037;-88
2021/12/02 10:17:39;;;;;;;12.18;4.25;;;6.40;99.90;;;;;;5071072;28;19904;-89
2021/12/02 10:23:33;;;;;;;19.92;3.85;;;6.40;99.90;;;;;;5063928;28;20029;-89
2021/12/02 10:26:05;;;;;;;16.33;4.88;;;6.40;99.90;;;;;;5072469;28;20029;-88
2021/12/02 10:28:42;;;;;;;12.10;3.25;;;6.40;99.90;;;;;;5070902;28;20031;-88
2021/12/02 10:31:10;;;;;;;12.82;3.50;;;6.50;99.90;;;;;;5070399;28;20028;-88
2021/12/02 10:33:40;;;;;;;11.90;3.75;;;6.50;99.90;;;;;;5070966;28;20032;-88
2021/12/02 10:36:34;;;;;;;11.50;3.58;;;6.50;99.90;;;;;;5070639;28;20055;-89
2021/12/02 10:39:12;;;;;;;22.58;3.72;;;6.60;99.90;;;;;;5067736;28;20032;-89
2021/12/02 10:41:42;;;;;;;12.03;4.07;;;6.50;99.90;;;;;;5072626;28;20423;-89
2021/12/02 10:44:19;;;;;;;14.32;4.63;;;6.40;99.90;;;;;;5071992;28;20025;-89
2021/12/02 10:47:07;;;;;;;15.32;4.63;;;6.40;99.90;;;;;;5072005;28;20036;-89
2021/12/02 10:49:38;;;;;;;10.70;3.67;;;6.40;99.90;;;;;;5071953;28;20032;-87
2021/12/02 10:52:06;;;;;;;9.60;2.90;;;6.30;99.90;;;;;;5072005;28;20028;-87
2021/12/02 10:54:35;;;;;;;10.98;2.80;;;6.20;99.90;;;;;;5070620;28;20020;-89
2021/12/02 10:57:08;;;;;;;10.20;2.95;;;6.10;99.90;;;;;;5072014;28;20559;-88
2021/12/02 10:59:56;;;;;;;7.80;2.58;;;6.10;99.90;;;;;;5070672;28;20112;-89
2021/12/02 11:02:28;;;;;;;10.90;2.55;;;6.00;99.90;;;;;;5072211;28;20028;-89
2021/12/02 11:05:15;;;;;;;6.45;2.08;;;6.00;99.90;;;;;;5072193;28;20028;-89
2021/12/02 11:07:42;;;;;;;9.02;2.53;;;5.90;99.90;;;;;;5071803;28;20426;-89
2021/12/02 11:10:13;;;;;;;15.32;2.50;;;6.00;99.90;;;;;;5071678;28;20031;-88
2021/12/02 11:12:41;;;;;;;9.52;2.30;;;6.00;99.90;;;;;;5070445;28;20024;-88
2021/12/02 11:15:13;;;;;;;5.07;1.88;;;6.20;99.90;;;;;;5070312;28;20044;-89
2021/12/02 11:18:01;;;;;;;5.50;2.20;;;6.30;99.90;;;;;;5070303;28;20032;-90
2021/12/02 11:20:31;;;;;;;14.38;3.10;;;6.40;99.90;;;;;;5072149;28;20025;-89
2021/12/02 11:23:02;;;;;;;12.07;4.10;;;6.50;99.90;;;;;;5075359;28;20033;-89
2021/12/02 11:25:28;;;;;;;10.38;2.85;;;6.70;99.90;;;;;;5075157;28;20041;-89
2021/12/02 11:27:54;;;;;;;12.52;3.38;;;6.70;99.90;;;;;;5075381;28;20510;-89
2021/12/02 11:30:29;;;;;;;11.25;3.58;;;6.80;99.90;;;;;;5070656;28;20025;-89
2021/12/02 11:33:06;;;;;;;11.98;3.60;;;6.90;99.90;;;;;;5070628;28;20021;-89
2021/12/02 11:35:33;;;;;;;13.77;3.05;;;7.00;99.90;;;;;;5071557;28;20032;-88
2021/12/02 11:38:17;;;;;;;8.88;3.55;;;6.90;99.90;;;;;;5070162;28;20473;-90
2021/12/02 11:40:51;;;;;;;9.35;3.10;;;7.00;99.90;;;;;;5070677;28;20035;-89
2021/12/02 11:43:20;;;;;;;12.85;3.90;;;7.00;99.90;;;;;;5075420;28;20448;-88
2021/12/02 11:45:50;;;;;;;10.68;4.30;;;7.10;99.90;;;;;;5075218;28;20085;-89
2021/12/02 11:48:25;;;;;;;11.35;4.10;;;7.10;99.90;;;;;;5074164;28;20029;-89
2021/12/02 11:50:55;;;;;;;11.27;3.70;;;7.20;99.90;;;;;;5075591;28;20477;-89
2021/12/02 11:53:21;;;;;;;8.95;4.35;;;7.20;99.90;;;;;;5075261;28;20025;-88
2021/12/02 11:55:50;;;;;;;11.15;4.10;;;7.10;99.90;;;;;;5073919;28;20024;-88
2021/12/02 11:58:15;;;;;;;11.73;3.20;;;7.10;99.90;;;;;;5073984;28;20500;-88
2021/12/02 12:00:44;;;;;;;8.27;2.70;;;7.10;99.90;;;;;;5073754;28;20028;-88
2021/12/02 12:03:28;;;;;;;12.27;3.42;;;7.00;99.90;;;;;;5073774;28;20027;-89
2021/12/02 12:06:00;;;;;;;4.22;2.10;;;7.00;99.90;;;;;;5075320;28;20518;-89
2021/12/02 12:08:38;;;;;;;4.88;1.98;;;7.00;99.90;;;;;;5075389;28;20025;-89
2021/12/02 12:11:20;;;;;;;8.48;2.28;;;7.10;99.90;;;;;;5073618;28;20028;-88
2021/12/02 12:13:48;;;;;;;14.02;5.03;;;7.20;99.90;;;;;;5073404;28;20124;-88
2021/12/02 12:16:26;;;;;;;36.63;13.60;;;7.10;99.90;;;;;;5073574;28;20024;-88
2021/12/02 12:18:53;;;;;;;10.20;3.10;;;6.80;99.90;;;;;;5074862;28;20100;-88
2021/12/02 12:21:35;;;;;;;10.70;3.40;;;6.60;99.90;;;;;;5073661;28;20060;-88
2021/12/02 12:24:02;;;;;;;7.72;3.22;;;6.50;99.90;;;;;;5073557;28;20029;-90
2021/12/02 12:26:38;;;;;;;3.63;1.60;;;6.40;99.90;;;;;;5074869;28;20388;-89
2021/12/02 12:29:06;;;;;;;17.55;5.43;;;6.10;99.90;;;;;;5075160;28;20048;-89
2021/12/02 12:32:21;;;;;;;3.92;1.90;;;5.60;99.90;;;;;;5073576;28;20028;-91
2021/12/02 12:40:16;;;;;;;4.10;2.53;;;5.10;99.90;;;;;;5075025;28;20425;-89
2021/12/02 12:43:02;;;;;;;6.05;2.40;;;5.20;99.90;;;;;;5073266;28;20029;-90
2021/12/02 12:45:36;;;;;;;17.45;10.63;;;5.40;99.90;;;;;;5053639;28;20393;-89
2021/12/02 12:48:04;;;;;;;6.03;3.30;;;5.30;99.90;;;;;;5072940;28;20058;-89
2021/12/02 12:50:33;;;;;;;11.90;8.85;;;5.40;99.90;;;;;;5072970;28;20065;-89
2021/12/02 12:53:12;;;;;;;22.90;16.90;;;5.60;99.90;;;;;;5072405;28;20063;-88
2021/12/02 12:55:40;;;;;;;19.55;16.27;;;5.80;99.90;;;;;;5072734;28;20025;-89
2021/12/02 12:58:13;;;;;;;16.48;10.65;;;5.80;99.90;;;;;;5072925;28;20143;-89
2021/12/02 13:00:50;;;;;;;18.75;9.07;;;5.80;99.90;;;;;;5072757;28;20029;-89
2021/12/02 13:03:43;;;;;;;12.52;6.57;;;5.90;99.90;;;;;;5074027;28;20037;-89
2021/12/02 13:06:32;;;;;;;15.85;8.68;;;5.90;99.90;;;;;;5072526;28;20408;-88
2021/12/02 13:09:02;;;;;;;4.22;2.25;;;5.90;99.90;;;;;;5073981;28;20031;-89
2021/12/02 13:11:33;;;;;;;5.35;3.25;;;6.00;99.90;;;;;;5073970;28;20511;-89
2021/12/02 13:14:01;;;;;;;6.35;3.42;;;6.00;99.90;;;;;;5072490;28;20132;-88
2021/12/02 13:16:29;;;;;;;7.05;4.20;;;6.00;99.90;;;;;;5072880;28;20021;-89
2021/12/02 13:19:10;;;;;;;;;;;6.10;99.90;;;;;;5074544;28;20107;-88
2021/12/02 13:21:36;;;;;;;18.98;11.25;;;6.10;99.90;;;;;;5072232;28;20311;-89
2021/12/02 13:24:19;;;;;;;17.17;8.38;;;6.10;99.90;;;;;;5073534;28;20060;-90
2021/12/02 13:27:06;;;;;;;10.07;4.72;;;6.00;99.90;;;;;;5073368;28;20016;-88